sensor_id;sensor_type;location;lat;lon;timestamp;P1;durP1;ratioP1;P2;durP2;ratioP2
69126;SDS011;56688;50.234;19.292;2023-07-31T00:01:26;3.90;;;2.40;;
69126;SDS011;56688;50.234;19.292;2023-07-31T00:03:53;3.70;;;2.70;;
69126;SDS011;56688;50.234;19.292;2023-07-31T00:06:20;2.80;;;2.40;;
69126;SDS011;56688;50.234;19.292;2023-07-31T00:08:47;5.30;;;3.10;;
69126;SDS011;56688;50.234;19.292;2023-07-31T00:11:14;3.70;;;2.20;;
69126;SDS011;56688;50.234;19.292;2023-07-31T00:13:41;3.80;;;2.60;;
69126;SDS011;56688;50.234;19.292;2023-07-31T00:16:08;5.00;;;2.60;;
69126;SDS011;56688;50.234;19.292;2023-07-31T00:18:35;4.00;;;2.50;;
69126;SDS011;56688;50.234;19.292;2023-07-31T00:21:02;3.30;;;2.70;;
69126;SDS011;56688;50.234;19.292;2023-07-31T00:23:29;7.50;;;2.70;;
69126;SDS011;56688;50.234;19.292;2023-07-31T00:25:56;4.90;;;2.70;;
69126;SDS011;56688;50.234;19.292;2023-07-31T00:28:24;5.50;;;2.90;;
69126;SDS011;56688;50.234;19.292;2023-07-31T00:30:51;6.00;;;3.20;;
69126;SDS011;56688;50.234;19.292;2023-07-31T00:33:18;5.00;;;3.10;;
69126;SDS011;56688;50.234;19.292;2023-07-31T00:35:45;3.50;;;2.90;;
69126;SDS011;56688;50.234;19.292;2023-07-31T00:38:12;3.60;;;3.00;;
69126;SDS011;56688;50.234;19.292;2023-07-31T00:40:39;5.80;;;2.70;;
69126;SDS011;56688;50.234;19.292;2023-07-31T00:43:06;4.60;;;2.90;;
69126;SDS011;56688;50.234;19.292;2023-07-31T00:45:34;3.90;;;2.60;;
69126;SDS011;56688;50.234;19.292;2023-07-31T00:48:02;3.70;;;2.60;;
69126;SDS011;56688;50.234;19.292;2023-07-31T00:50:30;5.70;;;2.90;;
69126;SDS011;56688;50.234;19.292;2023-07-31T00:52:57;4.50;;;2.90;;
69126;SDS011;56688;50.234;19.292;2023-07-31T00:55:25;3.50;;;3.00;;
69126;SDS011;56688;50.234;19.292;2023-07-31T00:57:52;3.50;;;2.60;;
69126;SDS011;56688;50.234;19.292;2023-07-31T01:00:22;3.40;;;2.60;;
69126;SDS011;56688;50.234;19.292;2023-07-31T01:02:49;5.80;;;2.60;;
69126;SDS011;56688;50.234;19.292;2023-07-31T01:05:19;3.60;;;2.90;;
69126;SDS011;56688;50.234;19.292;2023-07-31T01:07:57;4.10;;;2.60;;
69126;SDS011;56688;50.234;19.292;2023-07-31T01:10:36;3.90;;;2.30;;
69126;SDS011;56688;50.234;19.292;2023-07-31T01:13:10;3.10;;;2.50;;
69126;SDS011;56688;50.234;19.292;2023-07-31T01:15:37;2.90;;;2.60;;
69126;SDS011;56688;50.234;19.292;2023-07-31T01:18:05;4.10;;;2.90;;
69126;SDS011;56688;50.234;19.292;2023-07-31T01:20:32;7.60;;;2.90;;
69126;SDS011;56688;50.234;19.292;2023-07-31T01:31:22;3.30;;;2.70;;
69126;SDS011;56688;50.234;19.292;2023-07-31T01:33:51;3.40;;;2.60;;
69126;SDS011;56688;50.234;19.292;2023-07-31T01:36:21;3.50;;;2.80;;
69126;SDS011;56688;50.234;19.292;2023-07-31T01:38:49;4.10;;;3.00;;
69126;SDS011;56688;50.234;19.292;2023-07-31T01:41:18;4.10;;;2.90;;
69126;SDS011;56688;50.234;19.292;2023-07-31T01:43:45;5.50;;;3.00;;
69126;SDS011;56688;50.234;19.292;2023-07-31T01:46:13;4.00;;;2.80;;
69126;SDS011;56688;50.234;19.292;2023-07-31T01:48:40;3.30;;;2.40;;
69126;SDS011;56688;50.234;19.292;2023-07-31T01:51:08;3.40;;;2.10;;
69126;SDS011;56688;50.234;19.292;2023-07-31T01:53:35;2.90;;;2.20;;
69126;SDS011;56688;50.234;19.292;2023-07-31T01:56:02;4.60;;;2.10;;
69126;SDS011;56688;50.234;19.292;2023-07-31T01:58:29;2.70;;;2.00;;
69126;SDS011;56688;50.234;19.292;2023-07-31T02:00:56;4.60;;;2.40;;
69126;SDS011;56688;50.234;19.292;2023-07-31T02:03:24;2.60;;;2.10;;
69126;SDS011;56688;50.234;19.292;2023-07-31T02:05:53;3.40;;;2.20;;
69126;SDS011;56688;50.234;19.292;2023-07-31T02:08:21;4.10;;;2.00;;
69126;SDS011;56688;50.234;19.292;2023-07-31T02:10:47;3.60;;;2.10;;
69126;SDS011;56688;50.234;19.292;2023-07-31T02:13:14;3.90;;;2.40;;
69126;SDS011;56688;50.234;19.292;2023-07-31T02:15:41;4.60;;;2.50;;
69126;SDS011;56688;50.234;19.292;2023-07-31T02:18:08;5.60;;;2.50;;
69126;SDS011;56688;50.234;19.292;2023-07-31T02:20:35;2.90;;;2.20;;
69126;SDS011;56688;50.234;19.292;2023-07-31T02:23:02;4.00;;;2.30;;
69126;SDS011;56688;50.234;19.292;2023-07-31T02:25:29;3.20;;;2.20;;
69126;SDS011;56688;50.234;19.292;2023-07-31T02:27:56;6.30;;;2.50;;
69126;SDS011;56688;50.234;19.292;2023-07-31T02:30:24;4.70;;;2.40;;
69126;SDS011;56688;50.234;19.292;2023-07-31T02:32:51;7.30;;;2.60;;
69126;SDS011;56688;50.234;19.292;2023-07-31T02:35:19;4.80;;;2.80;;
69126;SDS011;56688;50.234;19.292;2023-07-31T02:37:46;2.90;;;2.20;;
69126;SDS011;56688;50.234;19.292;2023-07-31T02:40:13;3.20;;;2.40;;
69126;SDS011;56688;50.234;19.292;2023-07-31T02:42:40;4.10;;;2.50;;
69126;SDS011;56688;50.234;19.292;2023-07-31T02:45:07;3.90;;;2.50;;
69126;SDS011;56688;50.234;19.292;2023-07-31T02:47:34;3.20;;;2.30;;
69126;SDS011;56688;50.234;19.292;2023-07-31T02:50:02;2.90;;;2.30;;
69126;SDS011;56688;50.234;19.292;2023-07-31T02:52:30;2.90;;;2.40;;
69126;SDS011;56688;50.234;19.292;2023-07-31T02:54:57;2.80;;;2.20;;
69126;SDS011;56688;50.234;19.292;2023-07-31T02:57:24;4.60;;;2.80;;
69126;SDS011;56688;50.234;19.292;2023-07-31T02:59:51;4.40;;;2.20;;
69126;SDS011;56688;50.234;19.292;2023-07-31T03:02:18;4.10;;;2.30;;
69126;SDS011;56688;50.234;19.292;2023-07-31T03:04:46;2.90;;;2.20;;
69126;SDS011;56688;50.234;19.292;2023-07-31T03:07:13;4.20;;;2.00;;
69126;SDS011;56688;50.234;19.292;2023-07-31T03:09:41;4.20;;;2.20;;
69126;SDS011;56688;50.234;19.292;2023-07-31T03:12:08;3.00;;;2.20;;
69126;SDS011;56688;50.234;19.292;2023-07-31T03:14:35;4.40;;;2.10;;
69126;SDS011;56688;50.234;19.292;2023-07-31T03:17:02;4.20;;;2.40;;
69126;SDS011;56688;50.234;19.292;2023-07-31T03:19:30;3.40;;;2.30;;
69126;SDS011;56688;50.234;19.292;2023-07-31T03:21:59;3.50;;;2.00;;
69126;SDS011;56688;50.234;19.292;2023-07-31T03:24:28;3.10;;;2.10;;
69126;SDS011;56688;50.234;19.292;2023-07-31T03:26:56;2.60;;;2.00;;
69126;SDS011;56688;50.234;19.292;2023-07-31T03:29:23;4.10;;;2.00;;
69126;SDS011;56688;50.234;19.292;2023-07-31T03:31:51;2.80;;;2.20;;
69126;SDS011;56688;50.234;19.292;2023-07-31T03:34:18;2.80;;;2.50;;
69126;SDS011;56688;50.234;19.292;2023-07-31T03:36:45;4.50;;;2.50;;
69126;SDS011;56688;50.234;19.292;2023-07-31T03:39:13;4.20;;;2.20;;
69126;SDS011;56688;50.234;19.292;2023-07-31T03:41:43;3.90;;;2.20;;
69126;SDS011;56688;50.234;19.292;2023-07-31T03:44:10;2.60;;;2.10;;
69126;SDS011;56688;50.234;19.292;2023-07-31T03:46:37;3.50;;;2.30;;
69126;SDS011;56688;50.234;19.292;2023-07-31T03:49:05;3.40;;;2.10;;
69126;SDS011;56688;50.234;19.292;2023-07-31T03:51:32;6.00;;;2.30;;
69126;SDS011;56688;50.234;19.292;2023-07-31T03:54:00;4.70;;;2.10;;
69126;SDS011;56688;50.234;19.292;2023-07-31T03:56:27;3.50;;;2.10;;
69126;SDS011;56688;50.234;19.292;2023-07-31T03:58:55;2.60;;;2.20;;
69126;SDS011;56688;50.234;19.292;2023-07-31T04:01:22;3.90;;;2.10;;
69126;SDS011;56688;50.234;19.292;2023-07-31T04:03:49;4.10;;;2.10;;
69126;SDS011;56688;50.234;19.292;2023-07-31T04:06:16;2.20;;;1.80;;
69126;SDS011;56688;50.234;19.292;2023-07-31T04:08:44;5.50;;;2.10;;
69126;SDS011;56688;50.234;19.292;2023-07-31T04:11:12;4.80;;;2.00;;
69126;SDS011;56688;50.234;19.292;2023-07-31T04:13:39;4.30;;;2.10;;
69126;SDS011;56688;50.234;19.292;2023-07-31T04:16:06;3.40;;;2.40;;
69126;SDS011;56688;50.234;19.292;2023-07-31T04:18:33;3.50;;;1.80;;
69126;SDS011;56688;50.234;19.292;2023-07-31T04:21:00;7.10;;;2.40;;
69126;SDS011;56688;50.234;19.292;2023-07-31T04:23:29;2.10;;;1.70;;
69126;SDS011;56688;50.234;19.292;2023-07-31T04:25:56;3.10;;;2.00;;
69126;SDS011;56688;50.234;19.292;2023-07-31T04:28:23;2.70;;;1.70;;
69126;SDS011;56688;50.234;19.292;2023-07-31T04:30:50;4.60;;;2.10;;
69126;SDS011;56688;50.234;19.292;2023-07-31T04:33:17;4.80;;;2.30;;
69126;SDS011;56688;50.234;19.292;2023-07-31T04:35:51;3.40;;;2.10;;
69126;SDS011;56688;50.234;19.292;2023-07-31T04:38:20;3.40;;;1.90;;
69126;SDS011;56688;50.234;19.292;2023-07-31T04:40:48;3.00;;;1.80;;
69126;SDS011;56688;50.234;19.292;2023-07-31T04:43:15;3.60;;;1.80;;
69126;SDS011;56688;50.234;19.292;2023-07-31T04:45:42;3.30;;;2.00;;
69126;SDS011;56688;50.234;19.292;2023-07-31T04:48:14;3.10;;;2.00;;
69126;SDS011;56688;50.234;19.292;2023-07-31T04:50:41;6.40;;;2.40;;
69126;SDS011;56688;50.234;19.292;2023-07-31T04:53:08;4.70;;;2.00;;
69126;SDS011;56688;50.234;19.292;2023-07-31T04:55:35;2.70;;;2.00;;
69126;SDS011;56688;50.234;19.292;2023-07-31T04:58:02;8.00;;;2.20;;
69126;SDS011;56688;50.234;19.292;2023-07-31T05:00:29;4.80;;;2.00;;
69126;SDS011;56688;50.234;19.292;2023-07-31T05:02:56;3.50;;;1.70;;
69126;SDS011;56688;50.234;19.292;2023-07-31T05:05:23;3.90;;;1.90;;
69126;SDS011;56688;50.234;19.292;2023-07-31T05:07:50;4.40;;;1.90;;
69126;SDS011;56688;50.234;19.292;2023-07-31T05:10:17;3.10;;;1.90;;
69126;SDS011;56688;50.234;19.292;2023-07-31T05:12:44;3.80;;;2.00;;
69126;SDS011;56688;50.234;19.292;2023-07-31T05:15:11;4.60;;;2.10;;
69126;SDS011;56688;50.234;19.292;2023-07-31T05:17:38;5.90;;;1.80;;
69126;SDS011;56688;50.234;19.292;2023-07-31T05:20:06;6.00;;;2.10;;
69126;SDS011;56688;50.234;19.292;2023-07-31T05:22:34;3.40;;;2.00;;
69126;SDS011;56688;50.234;19.292;2023-07-31T05:25:01;2.80;;;2.00;;
69126;SDS011;56688;50.234;19.292;2023-07-31T05:27:31;5.10;;;2.00;;
69126;SDS011;56688;50.234;19.292;2023-07-31T05:29:59;8.40;;;1.90;;
69126;SDS011;56688;50.234;19.292;2023-07-31T05:32:26;3.90;;;1.80;;
69126;SDS011;56688;50.234;19.292;2023-07-31T05:34:54;2.30;;;1.70;;
69126;SDS011;56688;50.234;19.292;2023-07-31T05:37:21;3.60;;;2.00;;
69126;SDS011;56688;50.234;19.292;2023-07-31T05:39:48;4.90;;;2.10;;
69126;SDS011;56688;50.234;19.292;2023-07-31T05:42:15;4.30;;;2.00;;
69126;SDS011;56688;50.234;19.292;2023-07-31T05:44:43;4.30;;;1.90;;
69126;SDS011;56688;50.234;19.292;2023-07-31T05:47:11;3.20;;;1.90;;
69126;SDS011;56688;50.234;19.292;2023-07-31T05:49:38;3.30;;;1.80;;
69126;SDS011;56688;50.234;19.292;2023-07-31T05:52:05;5.10;;;2.20;;
69126;SDS011;56688;50.234;19.292;2023-07-31T05:54:32;3.30;;;1.90;;
69126;SDS011;56688;50.234;19.292;2023-07-31T05:57:00;3.70;;;2.10;;
69126;SDS011;56688;50.234;19.292;2023-07-31T05:59:27;3.30;;;1.90;;
69126;SDS011;56688;50.234;19.292;2023-07-31T06:01:54;5.40;;;2.10;;
69126;SDS011;56688;50.234;19.292;2023-07-31T06:04:21;8.20;;;2.10;;
69126;SDS011;56688;50.234;19.292;2023-07-31T06:06:51;3.60;;;1.80;;
69126;SDS011;56688;50.234;19.292;2023-07-31T06:09:19;5.90;;;2.10;;
69126;SDS011;56688;50.234;19.292;2023-07-31T06:11:46;5.30;;;2.10;;
69126;SDS011;56688;50.234;19.292;2023-07-31T06:14:14;4.10;;;2.10;;
69126;SDS011;56688;50.234;19.292;2023-07-31T06:16:41;4.30;;;1.90;;
69126;SDS011;56688;50.234;19.292;2023-07-31T06:19:08;5.40;;;2.50;;
69126;SDS011;56688;50.234;19.292;2023-07-31T06:21:36;6.10;;;2.30;;
69126;SDS011;56688;50.234;19.292;2023-07-31T06:24:05;3.20;;;1.80;;
69126;SDS011;56688;50.234;19.292;2023-07-31T06:26:32;5.00;;;2.00;;
69126;SDS011;56688;50.234;19.292;2023-07-31T06:28:59;5.90;;;2.10;;
69126;SDS011;56688;50.234;19.292;2023-07-31T06:31:26;5.70;;;2.10;;
69126;SDS011;56688;50.234;19.292;2023-07-31T06:33:54;4.80;;;2.10;;
69126;SDS011;56688;50.234;19.292;2023-07-31T06:36:21;6.00;;;2.00;;
69126;SDS011;56688;50.234;19.292;2023-07-31T06:38:48;3.30;;;2.20;;
69126;SDS011;56688;50.234;19.292;2023-07-31T06:41:15;5.30;;;1.90;;
69126;SDS011;56688;50.234;19.292;2023-07-31T06:43:42;6.70;;;2.10;;
69126;SDS011;56688;50.234;19.292;2023-07-31T06:46:09;5.80;;;2.00;;
69126;SDS011;56688;50.234;19.292;2023-07-31T06:48:37;3.10;;;2.20;;
69126;SDS011;56688;50.234;19.292;2023-07-31T06:51:05;2.70;;;1.90;;
69126;SDS011;56688;50.234;19.292;2023-07-31T06:53:32;5.90;;;2.30;;
69126;SDS011;56688;50.234;19.292;2023-07-31T06:55:59;5.10;;;2.00;;
69126;SDS011;56688;50.234;19.292;2023-07-31T06:58:26;7.50;;;2.20;;
69126;SDS011;56688;50.234;19.292;2023-07-31T07:00:53;8.40;;;2.00;;
69126;SDS011;56688;50.234;19.292;2023-07-31T07:03:21;7.70;;;2.10;;
69126;SDS011;56688;50.234;19.292;2023-07-31T07:05:48;6.20;;;2.00;;
69126;SDS011;56688;50.234;19.292;2023-07-31T07:08:16;3.80;;;2.10;;
69126;SDS011;56688;50.234;19.292;2023-07-31T07:10:44;4.70;;;2.30;;
69126;SDS011;56688;50.234;19.292;2023-07-31T07:13:11;4.60;;;2.20;;
69126;SDS011;56688;50.234;19.292;2023-07-31T07:15:39;4.30;;;2.00;;
69126;SDS011;56688;50.234;19.292;2023-07-31T07:18:06;3.60;;;2.00;;
69126;SDS011;56688;50.234;19.292;2023-07-31T07:20:34;4.50;;;1.90;;
69126;SDS011;56688;50.234;19.292;2023-07-31T07:23:01;4.30;;;2.00;;
69126;SDS011;56688;50.234;19.292;2023-07-31T07:25:28;6.20;;;2.10;;
69126;SDS011;56688;50.234;19.292;2023-07-31T07:27:55;4.10;;;1.60;;
69126;SDS011;56688;50.234;19.292;2023-07-31T07:30:22;4.50;;;2.00;;
69126;SDS011;56688;50.234;19.292;2023-07-31T07:32:50;5.70;;;2.40;;
69126;SDS011;56688;50.234;19.292;2023-07-31T07:35:18;4.50;;;2.00;;
69126;SDS011;56688;50.234;19.292;2023-07-31T07:37:45;5.50;;;2.00;;
69126;SDS011;56688;50.234;19.292;2023-07-31T07:40:11;4.80;;;2.20;;
69126;SDS011;56688;50.234;19.292;2023-07-31T07:42:38;8.30;;;1.80;;
69126;SDS011;56688;50.234;19.292;2023-07-31T07:45:06;5.20;;;1.80;;
69126;SDS011;56688;50.234;19.292;2023-07-31T07:47:33;5.60;;;1.80;;
69126;SDS011;56688;50.234;19.292;2023-07-31T07:50:00;4.60;;;1.90;;
69126;SDS011;56688;50.234;19.292;2023-07-31T07:52:28;2.50;;;1.40;;
69126;SDS011;56688;50.234;19.292;2023-07-31T07:54:55;4.20;;;1.60;;
69126;SDS011;56688;50.234;19.292;2023-07-31T07:57:22;4.90;;;2.00;;
69126;SDS011;56688;50.234;19.292;2023-07-31T07:59:50;7.00;;;2.00;;
69126;SDS011;56688;50.234;19.292;2023-07-31T08:02:17;4.90;;;1.90;;
69126;SDS011;56688;50.234;19.292;2023-07-31T08:04:44;6.00;;;2.00;;
69126;SDS011;56688;50.234;19.292;2023-07-31T08:07:12;5.90;;;2.10;;
69126;SDS011;56688;50.234;19.292;2023-07-31T08:09:40;6.30;;;2.00;;
69126;SDS011;56688;50.234;19.292;2023-07-31T08:12:07;6.60;;;2.00;;
69126;SDS011;56688;50.234;19.292;2023-07-31T08:14:37;2.30;;;1.60;;
69126;SDS011;56688;50.234;19.292;2023-07-31T08:17:04;9.80;;;1.90;;
69126;SDS011;56688;50.234;19.292;2023-07-31T08:19:31;4.50;;;1.70;;
69126;SDS011;56688;50.234;19.292;2023-07-31T08:21:58;3.40;;;1.60;;
69126;SDS011;56688;50.234;19.292;2023-07-31T08:24:25;4.60;;;1.80;;
69126;SDS011;56688;50.234;19.292;2023-07-31T08:26:53;4.60;;;1.50;;
69126;SDS011;56688;50.234;19.292;2023-07-31T08:29:21;3.30;;;1.70;;
69126;SDS011;56688;50.234;19.292;2023-07-31T08:31:48;2.60;;;1.30;;
69126;SDS011;56688;50.234;19.292;2023-07-31T08:34:16;3.80;;;1.60;;
69126;SDS011;56688;50.234;19.292;2023-07-31T08:36:43;3.60;;;1.50;;
69126;SDS011;56688;50.234;19.292;2023-07-31T08:39:10;2.60;;;1.40;;
69126;SDS011;56688;50.234;19.292;2023-07-31T08:41:37;5.50;;;1.60;;
69126;SDS011;56688;50.234;19.292;2023-07-31T08:44:07;3.70;;;1.30;;
69126;SDS011;56688;50.234;19.292;2023-07-31T08:46:34;4.30;;;1.30;;
69126;SDS011;56688;50.234;19.292;2023-07-31T08:49:04;5.40;;;1.50;;
69126;SDS011;56688;50.234;19.292;2023-07-31T08:51:36;6.20;;;1.90;;
69126;SDS011;56688;50.234;19.292;2023-07-31T08:54:03;3.30;;;1.50;;
69126;SDS011;56688;50.234;19.292;2023-07-31T08:56:32;3.80;;;1.50;;
69126;SDS011;56688;50.234;19.292;2023-07-31T08:59:00;4.40;;;1.40;;
69126;SDS011;56688;50.234;19.292;2023-07-31T09:01:29;3.40;;;1.40;;
69126;SDS011;56688;50.234;19.292;2023-07-31T09:03:59;3.40;;;1.40;;
69126;SDS011;56688;50.234;19.292;2023-07-31T09:06:28;3.80;;;1.30;;
69126;SDS011;56688;50.234;19.292;2023-07-31T09:08:57;3.50;;;1.60;;
69126;SDS011;56688;50.234;19.292;2023-07-31T09:11:24;3.10;;;1.30;;
69126;SDS011;56688;50.234;19.292;2023-07-31T09:13:53;2.90;;;1.10;;
69126;SDS011;56688;50.234;19.292;2023-07-31T09:16:30;2.60;;;1.30;;
69126;SDS011;56688;50.234;19.292;2023-07-31T09:18:58;5.20;;;1.40;;
69126;SDS011;56688;50.234;19.292;2023-07-31T09:21:28;3.00;;;1.10;;
69126;SDS011;56688;50.234;19.292;2023-07-31T09:23:55;4.50;;;1.40;;
69126;SDS011;56688;50.234;19.292;2023-07-31T09:26:32;3.10;;;1.30;;
69126;SDS011;56688;50.234;19.292;2023-07-31T09:29:01;4.00;;;1.10;;
69126;SDS011;56688;50.234;19.292;2023-07-31T09:31:32;7.30;;;1.50;;
69126;SDS011;56688;50.234;19.292;2023-07-31T09:34:08;5.80;;;1.70;;
69126;SDS011;56688;50.234;19.292;2023-07-31T09:36:39;3.40;;;1.20;;
69126;SDS011;56688;50.234;19.292;2023-07-31T09:39:11;3.40;;;1.40;;
69126;SDS011;56688;50.234;19.292;2023-07-31T09:41:41;6.40;;;1.50;;
69126;SDS011;56688;50.234;19.292;2023-07-31T09:44:10;4.70;;;1.40;;
69126;SDS011;56688;50.234;19.292;2023-07-31T09:46:38;4.40;;;1.20;;
69126;SDS011;56688;50.234;19.292;2023-07-31T09:49:07;4.60;;;1.40;;
69126;SDS011;56688;50.234;19.292;2023-07-31T09:51:37;3.50;;;1.30;;
69126;SDS011;56688;50.234;19.292;2023-07-31T09:54:12;2.80;;;1.30;;
69126;SDS011;56688;50.234;19.292;2023-07-31T09:56:44;3.90;;;1.50;;
69126;SDS011;56688;50.234;19.292;2023-07-31T09:59:16;4.50;;;1.20;;
69126;SDS011;56688;50.234;19.292;2023-07-31T10:01:49;4.00;;;1.30;;
69126;SDS011;56688;50.234;19.292;2023-07-31T10:04:20;4.30;;;1.40;;
69126;SDS011;56688;50.234;19.292;2023-07-31T10:06:52;6.00;;;1.60;;
69126;SDS011;56688;50.234;19.292;2023-07-31T10:09:20;3.20;;;1.30;;
69126;SDS011;56688;50.234;19.292;2023-07-31T10:11:52;4.20;;;1.30;;
69126;SDS011;56688;50.234;19.292;2023-07-31T10:14:26;4.20;;;1.40;;
69126;SDS011;56688;50.234;19.292;2023-07-31T10:16:56;2.40;;;1.20;;
69126;SDS011;56688;50.234;19.292;2023-07-31T10:19:24;2.50;;;1.30;;
69126;SDS011;56688;50.234;19.292;2023-07-31T10:21:54;3.50;;;1.30;;
69126;SDS011;56688;50.234;19.292;2023-07-31T10:24:23;4.00;;;1.40;;
69126;SDS011;56688;50.234;19.292;2023-07-31T10:26:51;4.70;;;1.30;;
69126;SDS011;56688;50.234;19.292;2023-07-31T10:29:19;7.20;;;1.30;;
69126;SDS011;56688;50.234;19.292;2023-07-31T10:31:48;3.40;;;1.30;;
69126;SDS011;56688;50.234;19.292;2023-07-31T10:34:17;3.70;;;1.20;;
69126;SDS011;56688;50.234;19.292;2023-07-31T10:36:44;2.40;;;1.20;;
69126;SDS011;56688;50.234;19.292;2023-07-31T10:42:10;3.60;;;1.40;;
69126;SDS011;56688;50.234;19.292;2023-07-31T10:44:43;2.30;;;1.40;;
69126;SDS011;56688;50.234;19.292;2023-07-31T10:47:13;5.00;;;1.50;;
69126;SDS011;56688;50.234;19.292;2023-07-31T10:49:41;4.80;;;1.10;;
69126;SDS011;56688;50.234;19.292;2023-07-31T10:52:12;1.90;;;1.00;;
69126;SDS011;56688;50.234;19.292;2023-07-31T10:54:40;5.70;;;1.40;;
69126;SDS011;56688;50.234;19.292;2023-07-31T10:59:51;3.60;;;1.30;;
69126;SDS011;56688;50.234;19.292;2023-07-31T11:13:33;3.10;;;1.50;;
69126;SDS011;56688;50.234;19.292;2023-07-31T11:16:06;3.60;;;1.30;;
69126;SDS011;56688;50.234;19.292;2023-07-31T11:18:33;3.70;;;1.50;;
69126;SDS011;56688;50.234;19.292;2023-07-31T11:21:01;2.80;;;1.40;;
69126;SDS011;56688;50.234;19.292;2023-07-31T11:23:28;2.80;;;1.40;;
69126;SDS011;56688;50.234;19.292;2023-07-31T11:26:00;2.40;;;1.30;;
69126;SDS011;56688;50.234;19.292;2023-07-31T11:28:31;2.70;;;1.40;;
69126;SDS011;56688;50.234;19.292;2023-07-31T11:31:01;3.40;;;1.50;;
69126;SDS011;56688;50.234;19.292;2023-07-31T11:33:29;4.70;;;1.50;;
69126;SDS011;56688;50.234;19.292;2023-07-31T11:35:56;3.40;;;1.40;;
69126;SDS011;56688;50.234;19.292;2023-07-31T11:38:24;5.20;;;1.50;;
69126;SDS011;56688;50.234;19.292;2023-07-31T11:40:53;4.30;;;1.40;;
69126;SDS011;56688;50.234;19.292;2023-07-31T11:43:22;5.40;;;1.50;;
69126;SDS011;56688;50.234;19.292;2023-07-31T11:45:52;5.60;;;1.50;;
69126;SDS011;56688;50.234;19.292;2023-07-31T11:48:22;3.00;;;1.30;;
69126;SDS011;56688;50.234;19.292;2023-07-31T11:50:50;3.40;;;1.50;;
69126;SDS011;56688;50.234;19.292;2023-07-31T11:53:20;3.60;;;1.50;;
69126;SDS011;56688;50.234;19.292;2023-07-31T11:55:54;5.00;;;2.00;;
69126;SDS011;56688;50.234;19.292;2023-07-31T11:58:22;6.40;;;2.20;;
69126;SDS011;56688;50.234;19.292;2023-07-31T12:00:49;2.40;;;1.50;;
69126;SDS011;56688;50.234;19.292;2023-07-31T12:03:17;4.20;;;1.40;;
69126;SDS011;56688;50.234;19.292;2023-07-31T12:05:44;3.00;;;1.40;;
69126;SDS011;56688;50.234;19.292;2023-07-31T12:08:14;3.90;;;1.50;;
69126;SDS011;56688;50.234;19.292;2023-07-31T12:10:42;3.40;;;1.50;;
69126;SDS011;56688;50.234;19.292;2023-07-31T12:13:11;3.60;;;1.40;;
69126;SDS011;56688;50.234;19.292;2023-07-31T12:15:46;4.70;;;1.60;;
69126;SDS011;56688;50.234;19.292;2023-07-31T12:18:13;3.80;;;1.30;;
69126;SDS011;56688;50.234;19.292;2023-07-31T12:20:44;3.70;;;1.70;;
69126;SDS011;56688;50.234;19.292;2023-07-31T12:23:14;3.90;;;1.40;;
69126;SDS011;56688;50.234;19.292;2023-07-31T12:25:46;4.70;;;1.30;;
69126;SDS011;56688;50.234;19.292;2023-07-31T12:28:12;2.80;;;1.40;;
69126;SDS011;56688;50.234;19.292;2023-07-31T12:30:40;4.20;;;1.60;;
69126;SDS011;56688;50.234;19.292;2023-07-31T12:33:12;3.20;;;1.40;;
69126;SDS011;56688;50.234;19.292;2023-07-31T12:35:42;3.40;;;1.40;;
69126;SDS011;56688;50.234;19.292;2023-07-31T12:38:11;2.90;;;1.20;;
69126;SDS011;56688;50.234;19.292;2023-07-31T12:40:40;4.80;;;1.30;;
69126;SDS011;56688;50.234;19.292;2023-07-31T12:43:08;2.50;;;1.40;;
69126;SDS011;56688;50.234;19.292;2023-07-31T12:45:35;2.40;;;1.00;;
69126;SDS011;56688;50.234;19.292;2023-07-31T12:48:02;2.90;;;1.40;;
69126;SDS011;56688;50.234;19.292;2023-07-31T12:50:30;3.30;;;1.30;;
69126;SDS011;56688;50.234;19.292;2023-07-31T12:52:56;3.40;;;1.50;;
69126;SDS011;56688;50.234;19.292;2023-07-31T12:55:24;2.90;;;1.30;;
69126;SDS011;56688;50.234;19.292;2023-07-31T12:57:51;4.60;;;1.50;;
69126;SDS011;56688;50.234;19.292;2023-07-31T13:00:20;4.30;;;1.60;;
69126;SDS011;56688;50.234;19.292;2023-07-31T13:02:48;2.70;;;1.40;;
69126;SDS011;56688;50.234;19.292;2023-07-31T13:05:15;2.80;;;1.20;;
69126;SDS011;56688;50.234;19.292;2023-07-31T13:07:42;2.80;;;1.50;;
69126;SDS011;56688;50.234;19.292;2023-07-31T13:10:09;2.80;;;1.30;;
69126;SDS011;56688;50.234;19.292;2023-07-31T13:12:36;4.50;;;1.40;;
69126;SDS011;56688;50.234;19.292;2023-07-31T13:15:05;5.00;;;1.50;;
69126;SDS011;56688;50.234;19.292;2023-07-31T13:17:33;7.00;;;1.90;;
69126;SDS011;56688;50.234;19.292;2023-07-31T13:20:00;5.00;;;1.50;;
69126;SDS011;56688;50.234;19.292;2023-07-31T13:22:27;1.90;;;1.30;;
69126;SDS011;56688;50.234;19.292;2023-07-31T13:24:54;3.70;;;1.40;;
69126;SDS011;56688;50.234;19.292;2023-07-31T13:27:32;2.80;;;1.30;;
69126;SDS011;56688;50.234;19.292;2023-07-31T13:30:04;3.50;;;1.30;;
69126;SDS011;56688;50.234;19.292;2023-07-31T13:32:33;2.80;;;1.30;;
69126;SDS011;56688;50.234;19.292;2023-07-31T13:35:05;4.80;;;1.30;;
69126;SDS011;56688;50.234;19.292;2023-07-31T13:37:33;5.60;;;1.40;;
69126;SDS011;56688;50.234;19.292;2023-07-31T13:40:01;4.30;;;1.30;;
69126;SDS011;56688;50.234;19.292;2023-07-31T13:42:32;3.10;;;1.30;;
69126;SDS011;56688;50.234;19.292;2023-07-31T13:45:00;2.50;;;1.60;;
69126;SDS011;56688;50.234;19.292;2023-07-31T13:47:31;4.60;;;1.60;;
69126;SDS011;56688;50.234;19.292;2023-07-31T13:49:58;2.70;;;1.40;;
69126;SDS011;56688;50.234;19.292;2023-07-31T13:52:25;2.90;;;1.50;;
69126;SDS011;56688;50.234;19.292;2023-07-31T13:54:53;3.40;;;1.70;;
69126;SDS011;56688;50.234;19.292;2023-07-31T13:57:20;4.90;;;1.50;;
69126;SDS011;56688;50.234;19.292;2023-07-31T13:59:48;4.20;;;1.30;;
69126;SDS011;56688;50.234;19.292;2023-07-31T14:02:16;3.10;;;1.30;;
69126;SDS011;56688;50.234;19.292;2023-07-31T14:04:43;5.60;;;1.40;;
69126;SDS011;56688;50.234;19.292;2023-07-31T14:07:10;3.20;;;1.20;;
69126;SDS011;56688;50.234;19.292;2023-07-31T14:09:38;3.10;;;1.30;;
69126;SDS011;56688;50.234;19.292;2023-07-31T14:12:08;3.20;;;1.30;;
69126;SDS011;56688;50.234;19.292;2023-07-31T14:14:35;2.30;;;1.10;;
69126;SDS011;56688;50.234;19.292;2023-07-31T14:17:02;3.40;;;1.40;;
69126;SDS011;56688;50.234;19.292;2023-07-31T14:19:30;2.70;;;1.30;;
69126;SDS011;56688;50.234;19.292;2023-07-31T14:21:58;2.90;;;1.20;;
69126;SDS011;56688;50.234;19.292;2023-07-31T14:24:37;4.00;;;1.30;;
69126;SDS011;56688;50.234;19.292;2023-07-31T14:27:05;9.00;;;1.30;;
69126;SDS011;56688;50.234;19.292;2023-07-31T14:29:32;2.50;;;1.20;;
69126;SDS011;56688;50.234;19.292;2023-07-31T14:31:59;2.10;;;1.30;;
69126;SDS011;56688;50.234;19.292;2023-07-31T14:34:27;3.30;;;1.30;;
69126;SDS011;56688;50.234;19.292;2023-07-31T14:36:54;3.60;;;1.50;;
69126;SDS011;56688;50.234;19.292;2023-07-31T14:39:21;3.70;;;1.30;;
69126;SDS011;56688;50.234;19.292;2023-07-31T14:41:48;2.20;;;1.40;;
69126;SDS011;56688;50.234;19.292;2023-07-31T14:44:15;2.80;;;1.40;;
69126;SDS011;56688;50.234;19.292;2023-07-31T14:46:42;4.60;;;1.40;;
69126;SDS011;56688;50.234;19.292;2023-07-31T14:49:09;4.90;;;1.40;;
69126;SDS011;56688;50.234;19.292;2023-07-31T14:51:36;3.50;;;1.40;;
69126;SDS011;56688;50.234;19.292;2023-07-31T14:54:03;3.40;;;1.30;;
69126;SDS011;56688;50.234;19.292;2023-07-31T14:56:30;2.50;;;1.30;;
69126;SDS011;56688;50.234;19.292;2023-07-31T14:58:57;4.10;;;1.40;;
69126;SDS011;56688;50.234;19.292;2023-07-31T15:01:24;6.60;;;1.70;;
69126;SDS011;56688;50.234;19.292;2023-07-31T15:03:51;5.80;;;1.70;;